createdAt,value
2019-02-20T00:00:42.033Z,1.5
2019-02-20T00:01:41.986Z,1.5
2019-02-20T00:02:42.024Z,1.6
2019-02-20T00:03:42.009Z,1.6
2019-02-20T00:04:42.005Z,1.6
2019-02-20T00:05:42.060Z,1.6
2019-02-20T00:06:42.090Z,1.7
2019-02-20T00:07:42.072Z,1.7
2019-02-20T00:08:42.075Z,1.7
2019-02-20T00:09:42.069Z,1.7
2019-02-20T00:10:42.076Z,1.7
2019-02-20T00:12:02.676Z,1.6
2019-02-20T00:12:42.103Z,1.6
2019-02-20T00:13:42.136Z,1.6
2019-02-20T00:14:42.131Z,1.7
2019-02-20T00:15:42.122Z,1.7
2019-02-20T00:16:42.159Z,1.7
2019-02-20T00:17:42.138Z,1.6
2019-02-20T00:18:42.131Z,1.6
2019-02-20T00:19:42.141Z,1.6
2019-02-20T00:20:42.137Z,1.6
2019-02-20T00:21:42.192Z,1.5
2019-02-20T00:22:42.175Z,1.5
2019-02-20T00:23:42.197Z,1.5
2019-02-20T00:24:42.231Z,1.5
2019-02-20T00:25:42.231Z,1.4
2019-02-20T00:26:42.230Z,1.4
2019-02-20T00:27:42.205Z,1.4
2019-02-20T00:28:42.242Z,1.4
2019-02-20T00:29:42.215Z,1.5
2019-02-20T00:30:42.520Z,1.4
2019-02-20T00:31:42.290Z,1.4
2019-02-20T00:32:42.340Z,1.4
2019-02-20T00:33:42.339Z,1.4
2019-02-20T00:34:42.328Z,1.4
2019-02-20T00:35:42.336Z,1.4
2019-02-20T00:36:42.373Z,1.4
2019-02-20T00:37:42.331Z,1.5
2019-02-20T00:38:42.360Z,1.4
2019-02-20T00:39:42.359Z,1.4
2019-02-20T00:40:42.370Z,1.4
2019-02-20T00:41:42.403Z,1.3
2019-02-20T00:42:42.402Z,1.4
2019-02-20T00:43:42.387Z,1.3
2019-02-20T00:44:42.402Z,1.3
2019-02-20T00:45:42.407Z,1.3
2019-02-20T00:46:42.423Z,1.3
2019-02-20T00:47:42.433Z,1.4
2019-02-20T00:48:42.473Z,1.3
2019-02-20T00:49:42.411Z,1.3
2019-02-20T00:50:42.408Z,1.3
2019-02-20T00:51:42.419Z,1.3
2019-02-20T00:52:49.549Z,1.3
2019-02-20T00:53:42.460Z,1.4
2019-02-20T00:54:42.489Z,1.4
2019-02-20T00:55:42.444Z,1.4
2019-02-20T00:56:42.531Z,1.5
2019-02-20T00:57:42.509Z,1.4
2019-02-20T00:58:42.504Z,1.4
2019-02-20T00:59:42.517Z,1.4
2019-02-20T01:00:42.545Z,1.3
2019-02-20T01:01:42.520Z,1.3
2019-02-20T01:02:42.563Z,1.3
2019-02-20T01:03:42.581Z,1.3
2019-02-20T01:04:42.565Z,1.3
2019-02-20T01:05:42.553Z,1.3
2019-02-20T01:06:45.242Z,1.3
2019-02-20T01:07:42.592Z,1.3
2019-02-20T01:08:42.597Z,1.3
2019-02-20T01:09:42.587Z,1.3
2019-02-20T01:10:42.601Z,1.3
2019-02-20T01:11:42.638Z,1.3
2019-02-20T01:12:42.619Z,1.2
2019-02-20T01:13:42.661Z,1.3
2019-02-20T01:14:42.678Z,1.4
2019-02-20T01:15:42.613Z,1.3
2019-02-20T01:16:42.648Z,1.4
2019-02-20T01:17:42.647Z,1.3
2019-02-20T01:18:42.672Z,1.4
2019-02-20T01:19:42.644Z,1.3
2019-02-20T01:20:42.724Z,1.3
2019-02-20T01:21:42.657Z,1.2
2019-02-20T01:22:42.674Z,1.3
2019-02-20T01:23:42.699Z,1.3
2019-02-20T01:24:42.757Z,1.2
2019-02-20T01:25:42.715Z,1.2
2019-02-20T01:26:42.746Z,1.2
2019-02-20T01:27:42.758Z,1.2
2019-02-20T01:28:42.737Z,1.2
2019-02-20T01:29:42.807Z,1.1
2019-02-20T01:30:42.845Z,1.1
2019-02-20T01:31:42.823Z,1.2
2019-02-20T01:32:42.784Z,1.2
2019-02-20T01:33:42.825Z,1.2
2019-02-20T01:34:42.833Z,1.2
2019-02-20T01:35:42.861Z,1.2
2019-02-20T01:36:42.829Z,1.2
2019-02-20T01:37:42.829Z,1.1
2019-02-20T01:38:42.868Z,1.3
2019-02-20T01:39:42.823Z,1.1
2019-02-20T01:40:42.881Z,1.2
2019-02-20T01:41:42.834Z,1.1
2019-02-20T01:42:42.884Z,1.2
2019-02-20T01:43:42.849Z,1.2
2019-02-20T01:44:42.866Z,1.2
2019-02-20T01:45:42.867Z,1.3
2019-02-20T01:46:43.007Z,1.2
2019-02-20T01:47:42.940Z,1.2
2019-02-20T01:48:43.041Z,1.2
2019-02-20T01:49:42.918Z,1.1
2019-02-20T01:50:42.954Z,1.2
2019-02-20T01:51:44.911Z,1.2
2019-02-20T01:52:42.970Z,1.2
2019-02-20T01:53:43.000Z,1.3
2019-02-20T01:54:43.011Z,1.3
2019-02-20T01:55:43.017Z,1.3
2019-02-20T01:56:43.008Z,1.2
2019-02-20T01:57:43.022Z,1.2
2019-02-20T01:58:43.051Z,1.2
2019-02-20T01:59:43.101Z,1.2
2019-02-20T02:00:43.146Z,1.2
2019-02-20T02:01:43.034Z,1.2
2019-02-20T02:02:43.050Z,1.2
2019-02-20T02:03:43.063Z,1.2
2019-02-20T02:04:43.138Z,1.2
2019-02-20T02:05:43.092Z,1.2
2019-02-20T02:06:43.098Z,1.2
2019-02-20T02:07:43.075Z,1.2
2019-02-20T02:08:43.071Z,1.2
2019-02-20T02:09:43.085Z,1.2
2019-02-20T02:10:43.111Z,1.2
2019-02-20T02:11:43.189Z,1.2
2019-02-20T02:12:43.121Z,1.3
2019-02-20T02:13:43.140Z,1.2
2019-02-20T02:14:43.194Z,1.2
2019-02-20T02:15:43.150Z,1.2
2019-02-20T02:16:43.252Z,1.2
2019-02-20T02:17:43.285Z,1.2
2019-02-20T02:18:43.222Z,1.2
2019-02-20T02:19:43.216Z,1.1
2019-02-20T02:20:43.255Z,1.1
2019-02-20T02:21:43.228Z,1.1
2019-02-20T02:22:43.389Z,1
2019-02-20T02:23:43.276Z,1.1
2019-02-20T02:24:43.250Z,1.1
2019-02-20T02:25:43.259Z,1.1
2019-02-20T02:26:43.292Z,1.2
2019-02-20T02:27:43.288Z,1.2
2019-02-20T02:28:43.271Z,1.2
2019-02-20T02:29:43.295Z,1.2
2019-02-20T02:30:43.296Z,1.1
2019-02-20T02:31:43.302Z,1.2
2019-02-20T02:32:43.296Z,1.1
2019-02-20T02:33:43.341Z,1.2
2019-02-20T02:34:43.549Z,1.1
2019-02-20T02:35:43.311Z,1.2
2019-02-20T02:36:43.329Z,1.1
2019-02-20T02:37:43.425Z,1.1
2019-02-20T02:38:43.330Z,1.2
2019-02-20T02:39:43.475Z,1.1
2019-02-20T02:40:43.366Z,1.1
2019-02-20T02:41:44.804Z,1.1
2019-02-20T02:42:43.422Z,1.1
2019-02-20T02:43:43.396Z,1.1
2019-02-20T02:44:43.453Z,0.9
2019-02-20T02:45:43.421Z,1.1
2019-02-20T02:46:43.511Z,1
2019-02-20T02:47:43.521Z,1.1
2019-02-20T02:48:43.510Z,1.1
2019-02-20T02:49:43.452Z,1.1
2019-02-20T02:50:43.479Z,1.1
2019-02-20T02:51:43.476Z,1.1
2019-02-20T02:52:43.521Z,1
2019-02-20T02:53:43.508Z,1
2019-02-20T02:54:43.462Z,1.1
2019-02-20T02:55:43.656Z,1.1
2019-02-20T02:56:43.494Z,1
2019-02-20T02:57:43.666Z,1.1
2019-02-20T02:58:43.459Z,1
2019-02-20T02:59:43.548Z,0.9
2019-02-20T03:00:43.661Z,1
2019-02-20T03:01:43.504Z,1
2019-02-20T03:02:43.489Z,0.9
2019-02-20T03:03:43.501Z,0.9
2019-02-20T03:04:43.576Z,1
2019-02-20T03:05:43.618Z,1
2019-02-20T03:06:43.507Z,1
2019-02-20T03:07:43.558Z,1.1
2019-02-20T03:08:43.510Z,1.1
2019-02-20T03:09:43.576Z,1
2019-02-20T03:10:43.562Z,1
2019-02-20T03:11:43.555Z,1
2019-02-20T03:12:43.544Z,1
2019-02-20T03:13:43.511Z,1
2019-02-20T03:14:43.610Z,0.9
2019-02-20T03:15:43.598Z,0.9
2019-02-20T03:16:43.586Z,0.9
2019-02-20T03:17:43.554Z,0.9
2019-02-20T03:18:43.563Z,0.9
2019-02-20T03:19:43.627Z,0.9
2019-02-20T03:20:43.567Z,0.8
2019-02-20T03:21:43.582Z,0.9
2019-02-20T03:22:43.570Z,0.9
2019-02-20T03:23:43.575Z,0.9
2019-02-20T03:24:43.639Z,0.8
2019-02-20T03:25:43.577Z,0.9
2019-02-20T03:26:43.607Z,0.8
2019-02-20T03:27:43.603Z,0.8
2019-02-20T03:28:43.618Z,0.7
2019-02-20T03:29:43.648Z,0.7
2019-02-20T03:30:43.608Z,0.8
2019-02-20T03:31:43.638Z,0.8
2019-02-20T03:32:43.609Z,0.7
2019-02-20T03:33:43.622Z,0.6
2019-02-20T03:34:43.690Z,0.5
2019-02-20T03:35:43.631Z,0.7
2019-02-20T03:36:43.652Z,0.6
2019-02-20T03:37:43.664Z,0.6
2019-02-20T03:38:43.779Z,0.6
2019-02-20T03:39:43.743Z,0.5
2019-02-20T03:40:43.676Z,0.6
2019-02-20T03:41:43.730Z,0.6
2019-02-20T03:42:43.675Z,0.5
2019-02-20T03:43:43.674Z,0.5
2019-02-20T03:44:43.720Z,0.4
2019-02-20T03:45:43.691Z,0.4
2019-02-20T03:46:43.747Z,0.6
2019-02-20T03:47:43.685Z,0.6
2019-02-20T03:48:43.773Z,0.6
2019-02-20T03:49:43.793Z,0.6
2019-02-20T03:50:43.784Z,0.5
2019-02-20T03:51:43.763Z,0.5
2019-02-20T03:52:43.766Z,0.5
2019-02-20T03:53:51.094Z,0.5
2019-02-20T03:54:43.995Z,0.3
2019-02-20T03:55:44.062Z,0.5
2019-02-20T03:56:43.856Z,0.5
2019-02-20T03:57:43.841Z,0.5
2019-02-20T03:58:43.879Z,0.6
2019-02-20T03:59:43.834Z,0.5
2019-02-20T04:00:43.901Z,0.5
2019-02-20T04:01:43.845Z,0.5
2019-02-20T04:02:43.947Z,0.6
2019-02-20T04:03:43.867Z,0.6
2019-02-20T04:04:44.053Z,0.7
2019-02-20T04:05:43.916Z,0.8
2019-02-20T04:06:43.939Z,0.8
2019-02-20T04:07:43.872Z,0.8
2019-02-20T04:08:43.907Z,0.8
2019-02-20T04:09:43.915Z,0.8
2019-02-20T04:10:43.974Z,0.7
2019-02-20T04:11:44.391Z,0.7
2019-02-20T04:12:43.953Z,0.9
2019-02-20T04:13:43.955Z,0.9
2019-02-20T04:14:43.960Z,0.8
2019-02-20T04:15:43.972Z,0.7
2019-02-20T04:16:44.041Z,0.7
2019-02-20T04:17:44.029Z,0.7
2019-02-20T04:18:44.096Z,0.8
2019-02-20T04:19:44.000Z,0.8
2019-02-20T04:20:44.032Z,0.8
2019-02-20T04:21:44.059Z,0.8
2019-02-20T04:22:49.038Z,0.8
2019-02-20T04:23:44.082Z,0.8
2019-02-20T04:24:44.096Z,0.7
2019-02-20T04:25:44.037Z,0.8
2019-02-20T04:26:44.046Z,0.8
2019-02-20T04:27:44.118Z,0.7
2019-02-20T04:28:44.207Z,0.7
2019-02-20T04:29:44.093Z,0.6
2019-02-20T04:30:44.109Z,0.6
2019-02-20T04:31:44.224Z,0.6
2019-02-20T04:32:44.139Z,0.7
2019-02-20T04:33:44.109Z,0.8
2019-02-20T04:34:44.172Z,0.9
2019-02-20T04:35:44.081Z,1
2019-02-20T04:36:49.119Z,1.1
2019-02-20T04:37:44.113Z,1.1
2019-02-20T04:38:44.290Z,1.1
2019-02-20T04:39:44.216Z,1.1
2019-02-20T04:40:44.199Z,1
2019-02-20T04:41:44.151Z,1.1
2019-02-20T04:42:44.238Z,1.1
2019-02-20T04:43:44.240Z,1
2019-02-20T04:44:44.235Z,1
2019-02-20T04:45:44.312Z,1
2019-02-20T04:46:44.268Z,1
2019-02-20T04:47:44.223Z,1
2019-02-20T04:48:44.273Z,1
2019-02-20T04:49:44.249Z,1.1
2019-02-20T04:50:44.298Z,1
2019-02-20T04:51:44.281Z,1
2019-02-20T04:52:44.302Z,1
2019-02-20T04:53:44.292Z,1
2019-02-20T04:54:44.274Z,1
2019-02-20T04:55:44.295Z,1
2019-02-20T04:56:44.279Z,1
2019-02-20T04:57:44.281Z,1
2019-02-20T04:58:44.279Z,1
2019-02-20T04:59:44.291Z,1
2019-02-20T05:00:44.319Z,1
2019-02-20T05:01:44.381Z,1
2019-02-20T05:02:44.359Z,0.9
2019-02-20T05:03:44.330Z,0.8
2019-02-20T05:04:44.477Z,0.8
2019-02-20T05:05:44.614Z,0.9
2019-02-20T05:06:44.398Z,0.9
2019-02-20T05:07:49.381Z,0.8
2019-02-20T05:08:44.396Z,0.8
2019-02-20T05:09:44.429Z,0.8
2019-02-20T05:10:44.410Z,0.9
2019-02-20T05:11:44.453Z,0.8
2019-02-20T05:12:44.416Z,0.8
2019-02-20T05:13:44.466Z,0.9
2019-02-20T05:14:44.460Z,1
2019-02-20T05:15:44.438Z,0.9
2019-02-20T05:16:44.458Z,0.9
2019-02-20T05:17:44.469Z,0.9
2019-02-20T05:18:44.480Z,0.8
2019-02-20T05:19:44.521Z,0.9
2019-02-20T05:20:44.511Z,0.9
2019-02-20T05:21:44.484Z,0.9
2019-02-20T05:22:44.478Z,1
2019-02-20T05:23:44.482Z,1.1
2019-02-20T05:24:44.501Z,1
2019-02-20T05:25:44.567Z,1
2019-02-20T05:26:44.592Z,0.8
2019-02-20T05:27:44.507Z,0.8
2019-02-20T05:28:44.571Z,0.9
2019-02-20T05:29:44.540Z,1
2019-02-20T05:30:44.697Z,0.9
2019-02-20T05:31:44.589Z,0.9
2019-02-20T05:32:49.587Z,1
2019-02-20T05:33:44.590Z,0.9
2019-02-20T05:34:44.642Z,1
2019-02-20T05:35:44.640Z,1.1
2019-02-20T05:36:44.675Z,1.2
2019-02-20T05:37:44.666Z,1.2
2019-02-20T05:38:44.684Z,1.2
2019-02-20T05:39:44.676Z,1.2
2019-02-20T05:40:44.713Z,1.1
2019-02-20T05:41:44.712Z,1.1
2019-02-20T05:42:44.794Z,1
2019-02-20T05:43:44.677Z,1
2019-02-20T05:44:44.683Z,1
2019-02-20T05:45:44.698Z,1.1
2019-02-20T05:46:44.749Z,1.2
2019-02-20T05:47:44.690Z,1.1
2019-02-20T05:48:44.698Z,1.1
2019-02-20T05:49:44.735Z,1.1
2019-02-20T05:50:44.779Z,1.1
2019-02-20T05:51:44.778Z,1
2019-02-20T05:52:44.791Z,1
2019-02-20T05:53:44.737Z,1
2019-02-20T05:54:44.798Z,1
2019-02-20T05:55:44.815Z,1.1
2019-02-20T05:56:44.861Z,1.1
2019-02-20T05:57:44.835Z,1.1
2019-02-20T05:58:44.833Z,1.1
2019-02-20T05:59:44.861Z,1.1
2019-02-20T06:00:44.835Z,1.1
2019-02-20T06:01:45.068Z,1.2
2019-02-20T06:02:44.883Z,1.2
2019-02-20T06:03:44.924Z,1.2
2019-02-20T06:04:44.861Z,1.3
2019-02-20T06:05:44.975Z,1.3
2019-02-20T06:06:44.915Z,1.4
2019-02-20T06:07:44.901Z,1.3
2019-02-20T06:08:44.913Z,1.3
2019-02-20T06:09:44.875Z,1.2
2019-02-20T06:10:44.914Z,1.2
2019-02-20T06:11:44.910Z,1.2
2019-02-20T06:12:44.915Z,1.2
2019-02-20T06:13:44.923Z,1.3
2019-02-20T06:14:44.914Z,1.3
2019-02-20T06:15:44.998Z,1.3
2019-02-20T06:16:44.983Z,1.4
2019-02-20T06:17:45.000Z,1.3
2019-02-20T06:18:45.010Z,1.3
2019-02-20T06:19:45.051Z,1.3
2019-02-20T06:20:45.055Z,1.3
2019-02-20T06:21:45.109Z,1.3
2019-02-20T06:22:45.109Z,1.2
2019-02-20T06:23:45.058Z,1.3
2019-02-20T06:24:45.096Z,1.3
2019-02-20T06:25:45.100Z,1.4
2019-02-20T06:26:45.065Z,1.3
2019-02-20T06:27:45.123Z,1.4
2019-02-20T06:28:45.102Z,1.4
2019-02-20T06:29:45.160Z,1.4
2019-02-20T06:30:45.113Z,1.4
2019-02-20T06:31:45.116Z,1.3
2019-02-20T06:32:45.129Z,1.3
2019-02-20T06:33:45.123Z,1.3
2019-02-20T06:34:45.147Z,1.2
2019-02-20T06:35:45.165Z,1.3
2019-02-20T06:36:45.173Z,1.3
2019-02-20T06:37:45.132Z,1.3
2019-02-20T06:38:45.150Z,1.4
2019-02-20T06:39:45.224Z,1.3
2019-02-20T06:40:45.419Z,1.4
2019-02-20T06:41:45.226Z,1.2
2019-02-20T06:42:45.206Z,1.3
2019-02-20T06:43:45.204Z,1.4
2019-02-20T06:44:45.201Z,1.3
2019-02-20T06:45:45.258Z,1.3
2019-02-20T06:46:45.227Z,1.2
2019-02-20T06:47:45.309Z,1.3
2019-02-20T06:48:45.273Z,1.4
2019-02-20T06:49:45.274Z,1.4
2019-02-20T06:50:45.308Z,1.5
2019-02-20T06:51:45.302Z,1.3
2019-02-20T06:52:45.352Z,1.3
2019-02-20T06:53:45.345Z,1.3
2019-02-20T06:54:53.452Z,1.3
2019-02-20T06:55:45.344Z,1.4
2019-02-20T06:56:45.318Z,1.5
2019-02-20T06:57:45.419Z,1.5
2019-02-20T06:58:45.328Z,1.5
2019-02-20T06:59:45.318Z,1.5
2019-02-20T07:00:45.383Z,1.5
2019-02-20T07:01:45.378Z,1.4
2019-02-20T07:02:45.378Z,1.4
2019-02-20T07:03:45.354Z,1.5
2019-02-20T07:04:45.381Z,1.5
2019-02-20T07:05:45.384Z,1.5
2019-02-20T07:06:45.451Z,1.5
2019-02-20T07:07:45.411Z,1.5
2019-02-20T07:08:45.409Z,1.5
2019-02-20T07:09:45.537Z,1.4
2019-02-20T07:10:45.484Z,1.5
2019-02-20T07:11:45.478Z,1.4
2019-02-20T07:12:45.619Z,1.4
2019-02-20T07:13:45.451Z,1.4
2019-02-20T07:14:45.496Z,1.5
2019-02-20T07:15:45.522Z,1.4
2019-02-20T07:16:45.533Z,1.4
2019-02-20T07:17:45.572Z,1.5
2019-02-20T07:18:45.553Z,1.4
2019-02-20T07:19:45.552Z,1.5
2019-02-20T07:20:45.583Z,1.5
2019-02-20T07:21:45.596Z,1.4
2019-02-20T07:22:45.542Z,1.5
2019-02-20T07:23:45.563Z,1.4
2019-02-20T07:24:45.571Z,1.5
2019-02-20T07:25:45.599Z,1.6
2019-02-20T07:26:45.566Z,1.6
2019-02-20T07:27:45.565Z,1.7
2019-02-20T07:28:45.621Z,1.6
2019-02-20T07:29:45.574Z,1.6
2019-02-20T07:30:45.624Z,1.5
2019-02-20T07:31:45.635Z,1.5
2019-02-20T07:32:45.633Z,1.6
2019-02-20T07:33:45.614Z,1.6
2019-02-20T07:34:45.655Z,1.5
2019-02-20T07:35:45.730Z,1.7
2019-02-20T07:36:45.703Z,1.6
2019-02-20T07:37:45.754Z,1.6
2019-02-20T07:38:45.687Z,1.4
2019-02-20T07:39:45.710Z,1.3
2019-02-20T07:40:45.742Z,1.5
2019-02-20T07:41:45.699Z,1.5
2019-02-20T07:42:45.764Z,1.5
2019-02-20T07:43:45.745Z,1.5
2019-02-20T07:44:45.732Z,1.5
2019-02-20T07:45:45.757Z,1.6
2019-02-20T07:46:45.783Z,1.6
2019-02-20T07:47:45.777Z,1.4
2019-02-20T07:48:45.806Z,1.7
2019-02-20T07:49:45.793Z,1.5
2019-02-20T07:50:45.773Z,1.5
2019-02-20T07:51:45.780Z,1.7
2019-02-20T07:52:45.802Z,1.6
2019-02-20T07:53:45.887Z,1.5
2019-02-20T07:54:45.800Z,1.8
2019-02-20T07:55:45.851Z,1.7
2019-02-20T07:56:45.905Z,1.6
2019-02-20T07:57:45.891Z,1.5
2019-02-20T07:58:45.923Z,1.5
2019-02-20T07:59:45.868Z,1.6
2019-02-20T08:00:46.033Z,1.6
2019-02-20T08:01:45.950Z,1.6
2019-02-20T08:02:45.913Z,1.6
2019-02-20T08:03:45.947Z,1.5
2019-02-20T08:04:46.040Z,1.5
2019-02-20T08:05:45.972Z,1.5
2019-02-20T08:06:45.980Z,1.5
2019-02-20T08:07:45.965Z,1.6
2019-02-20T08:08:46.056Z,1.5
2019-02-20T08:09:46.055Z,1.5
2019-02-20T08:10:45.992Z,1.5
2019-02-20T08:11:46.000Z,1.7
2019-02-20T08:12:46.001Z,1.8
2019-02-20T08:13:45.996Z,1.7
2019-02-20T08:14:46.058Z,1.4
2019-02-20T08:15:46.029Z,1.4
2019-02-20T08:16:52.166Z,1.3
2019-02-20T08:17:46.037Z,1.5
2019-02-20T08:18:46.039Z,1.5
2019-02-20T08:19:46.064Z,1.5
2019-02-20T08:20:46.057Z,1.5
2019-02-20T08:21:46.038Z,1.5
2019-02-20T08:22:46.038Z,1.5
2019-02-20T08:23:46.036Z,1.5
2019-02-20T08:24:46.089Z,1.5
2019-02-20T08:25:46.084Z,1.4
2019-02-20T08:26:46.089Z,1.4
2019-02-20T08:27:46.081Z,1.5
2019-02-20T08:28:46.107Z,1.6
2019-02-20T08:29:46.180Z,1.6
2019-02-20T08:30:46.134Z,1.6
2019-02-20T08:31:46.107Z,1.7
2019-02-20T08:32:46.145Z,1.6
2019-02-20T08:33:46.146Z,1.7
2019-02-20T08:34:46.238Z,1.7
2019-02-20T08:35:46.171Z,1.5
2019-02-20T08:36:46.216Z,1.5
2019-02-20T08:37:46.210Z,1.4
2019-02-20T08:38:46.225Z,1.5
2019-02-20T08:39:46.246Z,1.5
2019-02-20T08:40:46.228Z,1.5
2019-02-20T08:41:46.248Z,1.6
2019-02-20T08:42:46.232Z,1.6
2019-02-20T08:43:46.232Z,1.4
2019-02-20T08:44:46.259Z,1.5
2019-02-20T08:45:46.318Z,1.6
2019-02-20T08:46:46.223Z,1.6
2019-02-20T08:47:46.218Z,1.7
2019-02-20T08:48:46.286Z,1.5
2019-02-20T08:49:46.266Z,1.4
2019-02-20T08:50:46.275Z,1.5
2019-02-20T08:51:46.336Z,1.6
2019-02-20T08:52:46.511Z,1.7
2019-02-20T08:53:46.485Z,1.7
2019-02-20T08:54:46.301Z,1.7
2019-02-20T08:55:46.315Z,1.7
2019-02-20T08:56:46.412Z,1.7
2019-02-20T08:57:46.360Z,1.7
2019-02-20T08:58:46.319Z,1.9
2019-02-20T08:59:46.332Z,1.7
2019-02-20T09:00:46.365Z,1.7
2019-02-20T09:01:46.362Z,1.8
2019-02-20T09:02:46.427Z,1.6
2019-02-20T09:03:46.399Z,1.6
2019-02-20T09:04:46.402Z,1.5
2019-02-20T09:05:46.389Z,1.5
2019-02-20T09:06:46.366Z,1.5
2019-02-20T09:07:46.394Z,1.5
2019-02-20T09:08:46.456Z,1.5
2019-02-20T09:09:46.410Z,1.4
2019-02-20T09:10:46.389Z,1.6
2019-02-20T09:11:46.390Z,1.5
2019-02-20T09:12:46.389Z,1.4
2019-02-20T09:13:46.412Z,1.5
2019-02-20T09:14:46.533Z,1.6
2019-02-20T09:15:46.427Z,1.7
2019-02-20T09:16:46.416Z,1.6
2019-02-20T09:17:46.426Z,1.7
2019-02-20T09:18:46.471Z,1.7
2019-02-20T09:19:46.481Z,1.8
2019-02-20T09:20:46.465Z,1.8
2019-02-20T09:21:46.473Z,1.6
2019-02-20T09:22:46.459Z,1.8
2019-02-20T09:23:46.466Z,1.9
2019-02-20T09:24:46.500Z,2
2019-02-20T09:25:46.480Z,2
2019-02-20T09:26:46.499Z,2
2019-02-20T09:27:46.485Z,2.1
2019-02-20T09:28:46.507Z,1.8
2019-02-20T09:29:46.542Z,1.9
2019-02-20T09:30:46.524Z,1.9
2019-02-20T09:31:46.508Z,1.7
2019-02-20T09:32:46.515Z,1.8
2019-02-20T09:33:46.543Z,2
2019-02-20T09:34:46.515Z,1.9
2019-02-20T09:35:46.512Z,1.9
2019-02-20T09:36:46.528Z,1.8
2019-02-20T09:37:46.538Z,1.7
2019-02-20T09:38:46.546Z,1.9
2019-02-20T09:39:46.570Z,1.9
2019-02-20T09:40:46.592Z,1.7
2019-02-20T09:41:46.559Z,1.9
2019-02-20T09:42:46.566Z,1.8
2019-02-20T09:43:46.579Z,1.6
2019-02-20T09:44:46.567Z,1.8
2019-02-20T09:45:46.621Z,1.8
2019-02-20T09:46:46.599Z,1.8
2019-02-20T09:47:46.590Z,1.7
2019-02-20T09:48:46.621Z,1.6
2019-02-20T09:49:46.614Z,1.4
2019-02-20T09:50:51.591Z,1.7
2019-02-20T09:51:46.672Z,1.8
2019-02-20T09:52:52.152Z,1.8
2019-02-20T09:53:46.630Z,1.7
2019-02-20T09:54:46.642Z,1.7
2019-02-20T09:55:51.433Z,1.8
2019-02-20T09:56:47.675Z,1.8
2019-02-20T09:57:46.678Z,1.7
2019-02-20T09:58:46.659Z,1.7
2019-02-20T09:59:46.650Z,1.7
2019-02-20T10:00:46.688Z,1.7
2019-02-20T10:01:46.672Z,1.7
2019-02-20T10:02:47.339Z,1.6
2019-02-20T10:03:46.707Z,1.6
2019-02-20T10:04:46.709Z,1.7
2019-02-20T10:05:46.743Z,1.7
2019-02-20T10:06:46.780Z,1.7
2019-02-20T10:07:46.775Z,1.8
2019-02-20T10:08:46.755Z,1.8
2019-02-20T10:09:46.802Z,1.6
2019-02-20T10:10:46.946Z,1.6
2019-02-20T10:11:46.834Z,1.6
2019-02-20T10:12:46.821Z,1.7
2019-02-20T10:13:46.816Z,1.7
2019-02-20T10:14:46.798Z,1.8
2019-02-20T10:15:46.821Z,1.7
2019-02-20T10:16:46.859Z,2
2019-02-20T10:17:46.860Z,2
2019-02-20T10:18:46.837Z,1.8
2019-02-20T10:19:46.860Z,1.6
2019-02-20T10:20:46.850Z,1.7
2019-02-20T10:21:46.968Z,1.8
2019-02-20T10:22:46.854Z,1.7
2019-02-20T10:23:46.876Z,1.7
2019-02-20T10:24:46.864Z,1.8
2019-02-20T10:25:46.899Z,1.7
2019-02-20T10:26:46.959Z,1.8
2019-02-20T10:27:46.922Z,1.8
2019-02-20T10:28:46.929Z,1.7
2019-02-20T10:29:46.979Z,1.7
2019-02-20T10:30:46.978Z,1.8
2019-02-20T10:31:49.060Z,1.6
2019-02-20T10:32:47.010Z,1.6
2019-02-20T10:33:47.071Z,1.6
2019-02-20T10:34:46.978Z,1.6
2019-02-20T10:35:46.998Z,1.6
2019-02-20T10:36:47.028Z,1.4
2019-02-20T10:37:47.013Z,1.4
2019-02-20T10:38:47.004Z,1.6
2019-02-20T10:39:47.032Z,1.5
2019-02-20T10:40:47.369Z,1.6
2019-02-20T10:41:47.032Z,1.5
2019-02-20T10:42:47.066Z,1.5
2019-02-20T10:43:47.047Z,1.5
2019-02-20T10:44:47.058Z,1.6
2019-02-20T10:45:47.073Z,1.6
2019-02-20T10:46:47.105Z,1.7
2019-02-20T10:47:47.077Z,1.6
2019-02-20T10:48:47.070Z,1.6
2019-02-20T10:49:47.107Z,1.7
2019-02-20T10:50:47.099Z,1.7
2019-02-20T10:51:47.106Z,1.7
2019-02-20T10:52:47.153Z,1.6
2019-02-20T10:53:47.149Z,1.5
2019-02-20T10:54:47.397Z,1.7
2019-02-20T10:55:47.181Z,1.7
2019-02-20T10:56:47.230Z,1.7
2019-02-20T10:57:47.174Z,1.7
2019-02-20T10:58:47.192Z,1.5
2019-02-20T10:59:47.218Z,1.5
2019-02-20T11:00:47.209Z,1.5
2019-02-20T11:01:47.229Z,1.4
2019-02-20T11:02:47.229Z,1.4
2019-02-20T11:03:47.216Z,1.5
2019-02-20T11:04:47.263Z,1.5
2019-02-20T11:05:47.321Z,1.4
2019-02-20T11:06:47.377Z,1.5
2019-02-20T11:07:47.280Z,1.6
2019-02-20T11:08:47.271Z,1.7
2019-02-20T11:09:47.229Z,1.5
2019-02-20T11:10:47.279Z,1.2
2019-02-20T11:11:47.278Z,1.3
2019-02-20T11:12:47.258Z,1.5
2019-02-20T11:13:47.251Z,1.5
2019-02-20T11:14:48.885Z,1.4
2019-02-20T11:15:47.310Z,1.6
2019-02-20T11:16:47.348Z,1.8
2019-02-20T11:17:47.361Z,1.7
2019-02-20T11:18:47.372Z,1.6
2019-02-20T11:19:47.382Z,1.4
2019-02-20T11:20:48.529Z,1.5
2019-02-20T11:21:47.381Z,1.7
2019-02-20T11:22:48.593Z,1.8
2019-02-20T11:23:47.437Z,1.8
2019-02-20T11:24:47.402Z,1.6
2019-02-20T11:25:47.407Z,1.7
2019-02-20T11:26:54.197Z,1.8
2019-02-20T11:27:47.430Z,1.4
2019-02-20T11:28:47.477Z,1.3
2019-02-20T11:29:47.452Z,1.4
2019-02-20T11:30:47.442Z,1.5
2019-02-20T11:31:47.455Z,1.3
2019-02-20T11:32:47.453Z,1.2
2019-02-20T11:33:47.487Z,1.1
2019-02-20T11:34:47.473Z,1
2019-02-20T11:35:47.486Z,1.4
2019-02-20T11:36:49.310Z,1.6
2019-02-20T11:37:47.470Z,1.5
2019-02-20T11:38:47.507Z,1.3
2019-02-20T11:39:47.542Z,1.4
2019-02-20T11:40:47.553Z,1.5
2019-02-20T11:41:47.556Z,1.6
2019-02-20T11:42:47.559Z,1.5
2019-02-20T11:43:47.563Z,1.7
2019-02-20T11:44:47.593Z,1.4
2019-02-20T11:45:47.577Z,1.4
2019-02-20T11:46:47.612Z,1.4
2019-02-20T11:47:47.589Z,1.4
2019-02-20T11:48:47.599Z,1.4
2019-02-20T11:49:47.614Z,1.4
2019-02-20T11:50:47.627Z,1.3
2019-02-20T11:51:47.667Z,1.2
2019-02-20T11:52:47.640Z,1.5
2019-02-20T11:53:47.657Z,1.7
2019-02-20T11:54:47.646Z,1.6
2019-02-20T11:55:47.663Z,1.7
2019-02-20T11:56:47.696Z,1.5
2019-02-20T11:57:47.672Z,1.3
2019-02-20T11:58:47.717Z,1.1
2019-02-20T11:59:47.706Z,1.2
2019-02-20T12:00:47.699Z,1.1
2019-02-20T12:01:47.706Z,1.2
2019-02-20T12:02:47.720Z,1.1
2019-02-20T12:03:47.714Z,0.9
2019-02-20T12:04:47.750Z,1
2019-02-20T12:05:47.742Z,1.2
2019-02-20T12:06:47.791Z,1.3
2019-02-20T12:07:47.758Z,1.2
2019-02-20T12:08:47.782Z,1.3
2019-02-20T12:09:47.787Z,1.1
2019-02-20T12:10:47.815Z,1.2
2019-02-20T12:11:47.870Z,1.3
2019-02-20T12:12:47.870Z,1.1
2019-02-20T12:13:47.825Z,1.6
2019-02-20T12:14:47.869Z,1.3
2019-02-20T12:15:47.853Z,1.2
2019-02-20T12:16:47.856Z,1.3
2019-02-20T12:17:47.900Z,1.2
2019-02-20T12:18:47.851Z,1.2
2019-02-20T12:19:47.863Z,1.2
2019-02-20T12:20:47.927Z,1.3
2019-02-20T12:21:47.892Z,1.3
2019-02-20T12:22:47.923Z,1.2
2019-02-20T12:23:47.929Z,1.5
2019-02-20T12:24:47.896Z,1.3
2019-02-20T12:25:47.886Z,1.2
2019-02-20T12:26:47.906Z,1.3
2019-02-20T12:27:47.967Z,1
2019-02-20T12:28:47.939Z,1.2
2019-02-20T12:29:47.938Z,1.4
2019-02-20T12:30:47.938Z,1.5
2019-02-20T12:31:52.388Z,1.2
2019-02-20T12:32:47.987Z,1.1
2019-02-20T12:33:47.976Z,0.9
2019-02-20T12:34:48.011Z,1.1
2019-02-20T12:35:47.998Z,1.3
2019-02-20T12:36:48.021Z,1.1
2019-02-20T12:37:48.015Z,1
2019-02-20T12:38:48.119Z,1.3
2019-02-20T12:39:48.027Z,1
2019-02-20T12:40:48.082Z,0.8
2019-02-20T12:41:48.090Z,0.9
2019-02-20T12:42:48.039Z,0.9
2019-02-20T12:43:48.071Z,1
2019-02-20T12:44:48.064Z,0.9
2019-02-20T12:45:49.042Z,0.9
2019-02-20T12:46:48.075Z,1
2019-02-20T12:47:48.064Z,1.1
2019-02-20T12:48:48.107Z,1.1
2019-02-20T12:49:48.074Z,1
2019-02-20T12:50:48.241Z,1
2019-02-20T12:51:48.090Z,1
2019-02-20T12:52:48.084Z,0.7
2019-02-20T12:53:48.105Z,0.7
2019-02-20T12:54:48.106Z,0.7
2019-02-20T12:55:48.141Z,1.1
2019-02-20T12:56:48.200Z,1.2
2019-02-20T12:57:48.132Z,1.3
2019-02-20T12:58:48.183Z,1
2019-02-20T12:59:48.149Z,0.9
2019-02-20T13:00:48.162Z,0.6
2019-02-20T13:01:48.164Z,0.3
2019-02-20T13:02:48.193Z,0.3
2019-02-20T13:03:48.283Z,0.1
2019-02-20T13:04:48.246Z,0.2
2019-02-20T13:05:48.223Z,0.7
2019-02-20T13:06:48.217Z,0.6
2019-02-20T13:07:48.220Z,0.5
2019-02-20T13:08:48.247Z,0.6
2019-02-20T13:09:50.031Z,0.9
2019-02-20T13:10:48.230Z,1.1
2019-02-20T13:11:48.257Z,0.9
2019-02-20T13:12:48.273Z,0.7
2019-02-20T13:13:49.084Z,0.4
2019-02-20T13:14:48.290Z,0.3
2019-02-20T13:15:48.254Z,0.4
2019-02-20T13:16:48.250Z,0.2
2019-02-20T13:17:48.294Z,0.2
2019-02-20T13:18:48.256Z,0.2
2019-02-20T13:19:48.300Z,0.4
2019-02-20T13:20:48.309Z,0.7
2019-02-20T13:21:48.313Z,0.4
2019-02-20T13:22:48.324Z,0.2
2019-02-20T13:23:48.368Z,0.3
2019-02-20T13:24:48.374Z,0.4
2019-02-20T13:25:48.360Z,0.1
2019-02-20T13:26:52.709Z,0.3
2019-02-20T13:27:53.356Z,0.3
2019-02-20T13:28:48.395Z,0.5
2019-02-20T13:29:48.501Z,0.3
2019-02-20T13:30:48.409Z,0.3
2019-02-20T13:31:48.421Z,0.2
2019-02-20T13:32:48.436Z,0.3
2019-02-20T13:33:48.461Z,0.2
2019-02-20T13:34:48.486Z,0.2
2019-02-20T13:35:48.453Z,0.5
2019-02-20T13:36:48.464Z,0.7
2019-02-20T13:37:48.465Z,0.8
2019-02-20T13:38:48.448Z,0.8
2019-02-20T13:39:48.514Z,0.8
2019-02-20T13:40:48.479Z,0.7
2019-02-20T13:41:48.483Z,0.8
2019-02-20T13:42:48.476Z,0.9
2019-02-20T13:43:48.457Z,0.7
2019-02-20T13:44:48.501Z,0.9
2019-02-20T13:45:48.500Z,1.1
2019-02-20T13:46:48.554Z,0.9
2019-02-20T13:47:48.522Z,0.9
2019-02-20T13:48:48.537Z,1
2019-02-20T13:49:48.538Z,1.2
2019-02-20T13:50:48.579Z,1